sensor_id;sensor_type;location;lat;lon;timestamp;P1;durP1;ratioP1;P2;durP2;ratioP2
20381;SDS011;10350;51.280;12.400;2022-08-19T00:01:45;44.33;;;21.90;;
20381;SDS011;10350;51.280;12.400;2022-08-19T00:04:12;64.32;;;25.95;;
20381;SDS011;10350;51.280;12.400;2022-08-19T00:06:39;63.83;;;26.83;;
20381;SDS011;10350;51.280;12.400;2022-08-19T00:09:06;102.07;;;26.05;;
20381;SDS011;10350;51.280;12.400;2022-08-19T00:11:32;74.00;;;28.67;;
20381;SDS011;10350;51.280;12.400;2022-08-19T00:13:59;67.00;;;26.63;;
20381;SDS011;10350;51.280;12.400;2022-08-19T00:16:26;66.43;;;29.80;;
20381;SDS011;10350;51.280;12.400;2022-08-19T00:18:53;63.30;;;28.52;;
20381;SDS011;10350;51.280;12.400;2022-08-19T00:21:20;63.80;;;30.30;;
20381;SDS011;10350;51.280;12.400;2022-08-19T00:23:46;73.18;;;32.95;;
20381;SDS011;10350;51.280;12.400;2022-08-19T00:26:12;106.90;;;31.58;;
20381;SDS011;10350;51.280;12.400;2022-08-19T00:28:38;93.22;;;32.22;;
20381;SDS011;10350;51.280;12.400;2022-08-19T00:31:05;79.10;;;32.42;;
20381;SDS011;10350;51.280;12.400;2022-08-19T00:33:31;85.60;;;31.77;;
20381;SDS011;10350;51.280;12.400;2022-08-19T00:35:58;88.68;;;33.20;;
20381;SDS011;10350;51.280;12.400;2022-08-19T00:38:24;74.68;;;32.53;;
20381;SDS011;10350;51.280;12.400;2022-08-19T00:40:50;101.10;;;33.85;;
20381;SDS011;10350;51.280;12.400;2022-08-19T00:43:18;83.60;;;32.47;;
20381;SDS011;10350;51.280;12.400;2022-08-19T00:45:46;73.75;;;29.52;;
20381;SDS011;10350;51.280;12.400;2022-08-19T00:48:12;75.82;;;30.15;;
20381;SDS011;10350;51.280;12.400;2022-08-19T00:50:39;79.90;;;28.75;;
20381;SDS011;10350;51.280;12.400;2022-08-19T00:53:05;80.75;;;32.85;;
20381;SDS011;10350;51.280;12.400;2022-08-19T00:55:32;94.40;;;33.90;;
20381;SDS011;10350;51.280;12.400;2022-08-19T00:58:00;83.65;;;32.75;;
20381;SDS011;10350;51.280;12.400;2022-08-19T01:00:29;97.35;;;33.25;;
20381;SDS011;10350;51.280;12.400;2022-08-19T01:02:55;89.30;;;33.58;;
20381;SDS011;10350;51.280;12.400;2022-08-19T01:05:25;89.38;;;35.47;;
20381;SDS011;10350;51.280;12.400;2022-08-19T01:07:56;105.35;;;37.05;;
20381;SDS011;10350;51.280;12.400;2022-08-19T01:10:25;106.15;;;37.45;;
20381;SDS011;10350;51.280;12.400;2022-08-19T01:12:51;136.48;;;37.40;;
20381;SDS011;10350;51.280;12.400;2022-08-19T01:15:19;104.97;;;34.65;;
20381;SDS011;10350;51.280;12.400;2022-08-19T01:17:46;104.22;;;35.17;;
20381;SDS011;10350;51.280;12.400;2022-08-19T01:20:13;121.70;;;35.15;;
20381;SDS011;10350;51.280;12.400;2022-08-19T01:22:47;118.63;;;35.95;;
20381;SDS011;10350;51.280;12.400;2022-08-19T01:25:14;111.20;;;38.30;;
20381;SDS011;10350;51.280;12.400;2022-08-19T01:27:42;119.60;;;34.15;;
20381;SDS011;10350;51.280;12.400;2022-08-19T01:30:09;107.03;;;36.85;;
20381;SDS011;10350;51.280;12.400;2022-08-19T01:32:35;110.15;;;36.15;;
20381;SDS011;10350;51.280;12.400;2022-08-19T01:35:02;115.95;;;37.63;;
20381;SDS011;10350;51.280;12.400;2022-08-19T01:37:28;112.63;;;38.33;;
20381;SDS011;10350;51.280;12.400;2022-08-19T01:39:55;138.53;;;40.20;;
20381;SDS011;10350;51.280;12.400;2022-08-19T01:42:21;130.73;;;40.88;;
20381;SDS011;10350;51.280;12.400;2022-08-19T01:44:47;124.00;;;37.50;;
20381;SDS011;10350;51.280;12.400;2022-08-19T01:47:13;212.63;;;40.95;;
20381;SDS011;10350;51.280;12.400;2022-08-19T01:49:41;120.37;;;39.80;;
20381;SDS011;10350;51.280;12.400;2022-08-19T01:52:07;120.63;;;40.88;;
20381;SDS011;10350;51.280;12.400;2022-08-19T01:54:32;133.77;;;41.08;;
20381;SDS011;10350;51.280;12.400;2022-08-19T01:57:00;139.20;;;39.53;;
20381;SDS011;10350;51.280;12.400;2022-08-19T01:59:27;123.85;;;38.63;;
20381;SDS011;10350;51.280;12.400;2022-08-19T02:01:53;137.70;;;40.28;;
20381;SDS011;10350;51.280;12.400;2022-08-19T02:04:19;139.10;;;39.22;;
20381;SDS011;10350;51.280;12.400;2022-08-19T02:06:45;137.48;;;42.08;;
20381;SDS011;10350;51.280;12.400;2022-08-19T02:09:12;128.47;;;40.13;;
20381;SDS011;10350;51.280;12.400;2022-08-19T02:11:39;124.43;;;41.50;;
20381;SDS011;10350;51.280;12.400;2022-08-19T02:14:07;129.98;;;39.50;;
20381;SDS011;10350;51.280;12.400;2022-08-19T02:16:33;154.10;;;42.10;;
20381;SDS011;10350;51.280;12.400;2022-08-19T02:19:00;125.85;;;41.72;;
20381;SDS011;10350;51.280;12.400;2022-08-19T02:21:26;122.43;;;38.50;;
20381;SDS011;10350;51.280;12.400;2022-08-19T02:23:52;139.10;;;37.97;;
20381;SDS011;10350;51.280;12.400;2022-08-19T02:26:18;111.40;;;38.38;;
20381;SDS011;10350;51.280;12.400;2022-08-19T02:28:45;143.20;;;39.47;;
20381;SDS011;10350;51.280;12.400;2022-08-19T02:31:11;119.93;;;36.60;;
20381;SDS011;10350;51.280;12.400;2022-08-19T02:33:39;121.60;;;37.60;;
20381;SDS011;10350;51.280;12.400;2022-08-19T02:36:06;101.65;;;37.42;;
20381;SDS011;10350;51.280;12.400;2022-08-19T02:38:32;132.05;;;38.67;;
20381;SDS011;10350;51.280;12.400;2022-08-19T02:40:59;123.78;;;39.22;;
20381;SDS011;10350;51.280;12.400;2022-08-19T02:43:26;127.07;;;38.97;;
20381;SDS011;10350;51.280;12.400;2022-08-19T02:45:52;134.05;;;39.78;;
20381;SDS011;10350;51.280;12.400;2022-08-19T02:48:19;127.47;;;37.25;;
20381;SDS011;10350;51.280;12.400;2022-08-19T02:50:45;123.03;;;39.70;;
20381;SDS011;10350;51.280;12.400;2022-08-19T02:53:11;111.93;;;37.90;;
20381;SDS011;10350;51.280;12.400;2022-08-19T02:55:45;136.23;;;41.72;;
20381;SDS011;10350;51.280;12.400;2022-08-19T02:58:12;102.75;;;36.65;;
20381;SDS011;10350;51.280;12.400;2022-08-19T03:00:45;114.07;;;37.67;;
20381;SDS011;10350;51.280;12.400;2022-08-19T03:03:12;107.07;;;37.58;;
20381;SDS011;10350;51.280;12.400;2022-08-19T03:05:38;99.03;;;33.72;;
20381;SDS011;10350;51.280;12.400;2022-08-19T03:08:04;120.53;;;34.95;;
20381;SDS011;10350;51.280;12.400;2022-08-19T03:10:31;148.10;;;35.58;;
20381;SDS011;10350;51.280;12.400;2022-08-19T03:12:57;118.18;;;35.47;;
20381;SDS011;10350;51.280;12.400;2022-08-19T03:15:24;83.15;;;29.35;;
20381;SDS011;10350;51.280;12.400;2022-08-19T03:17:51;151.53;;;36.00;;
20381;SDS011;10350;51.280;12.400;2022-08-19T03:20:17;105.95;;;33.30;;
20381;SDS011;10350;51.280;12.400;2022-08-19T03:22:43;74.18;;;31.20;;
20381;SDS011;10350;51.280;12.400;2022-08-19T03:25:09;79.75;;;32.28;;
20381;SDS011;10350;51.280;12.400;2022-08-19T03:27:36;89.55;;;32.25;;
20381;SDS011;10350;51.280;12.400;2022-08-19T03:30:02;98.50;;;30.33;;
20381;SDS011;10350;51.280;12.400;2022-08-19T03:32:29;87.20;;;28.30;;
20381;SDS011;10350;51.280;12.400;2022-08-19T03:34:55;75.45;;;28.77;;
20381;SDS011;10350;51.280;12.400;2022-08-19T03:37:21;102.75;;;30.15;;
20381;SDS011;10350;51.280;12.400;2022-08-19T03:39:47;88.30;;;25.60;;
20381;SDS011;10350;51.280;12.400;2022-08-19T03:42:13;104.93;;;28.83;;
20381;SDS011;10350;51.280;12.400;2022-08-19T03:44:41;239.95;;;32.72;;
20381;SDS011;10350;51.280;12.400;2022-08-19T03:47:09;67.45;;;27.83;;
20381;SDS011;10350;51.280;12.400;2022-08-19T03:49:39;75.20;;;27.30;;
20381;SDS011;10350;51.280;12.400;2022-08-19T03:52:05;164.73;;;31.35;;
20381;SDS011;10350;51.280;12.400;2022-08-19T03:54:33;126.15;;;27.88;;
20381;SDS011;10350;51.280;12.400;2022-08-19T03:57:00;110.10;;;27.42;;
20381;SDS011;10350;51.280;12.400;2022-08-19T03:59:27;89.55;;;25.65;;
20381;SDS011;10350;51.280;12.400;2022-08-19T04:01:58;121.40;;;26.58;;
20381;SDS011;10350;51.280;12.400;2022-08-19T04:04:25;113.63;;;27.85;;
20381;SDS011;10350;51.280;12.400;2022-08-19T04:06:51;74.90;;;27.75;;
20381;SDS011;10350;51.280;12.400;2022-08-19T04:09:17;71.05;;;28.50;;
20381;SDS011;10350;51.280;12.400;2022-08-19T04:11:45;64.25;;;29.05;;
20381;SDS011;10350;51.280;12.400;2022-08-19T04:14:13;60.90;;;26.55;;
20381;SDS011;10350;51.280;12.400;2022-08-19T04:16:39;60.63;;;26.52;;
20381;SDS011;10350;51.280;12.400;2022-08-19T04:19:05;68.78;;;25.63;;
20381;SDS011;10350;51.280;12.400;2022-08-19T04:21:31;108.68;;;28.42;;
20381;SDS011;10350;51.280;12.400;2022-08-19T04:23:58;68.53;;;27.48;;
20381;SDS011;10350;51.280;12.400;2022-08-19T04:26:25;68.47;;;29.58;;
20381;SDS011;10350;51.280;12.400;2022-08-19T04:28:51;68.00;;;30.33;;
20381;SDS011;10350;51.280;12.400;2022-08-19T04:31:19;66.03;;;30.33;;
20381;SDS011;10350;51.280;12.400;2022-08-19T04:33:45;73.82;;;31.88;;
20381;SDS011;10350;51.280;12.400;2022-08-19T04:36:19;67.65;;;30.95;;
20381;SDS011;10350;51.280;12.400;2022-08-19T04:38:46;78.80;;;30.80;;
20381;SDS011;10350;51.280;12.400;2022-08-19T04:41:12;72.97;;;30.27;;
20381;SDS011;10350;51.280;12.400;2022-08-19T04:43:56;81.28;;;29.92;;
20381;SDS011;10350;51.280;12.400;2022-08-19T04:46:23;71.85;;;28.85;;
20381;SDS011;10350;51.280;12.400;2022-08-19T04:48:49;93.53;;;33.03;;
20381;SDS011;10350;51.280;12.400;2022-08-19T04:51:15;96.93;;;35.22;;
20381;SDS011;10350;51.280;12.400;2022-08-19T04:53:41;97.78;;;35.42;;
20381;SDS011;10350;51.280;12.400;2022-08-19T04:56:09;98.70;;;33.05;;
20381;SDS011;10350;51.280;12.400;2022-08-19T04:58:36;88.78;;;37.10;;
20381;SDS011;10350;51.280;12.400;2022-08-19T05:01:03;93.03;;;36.28;;
20381;SDS011;10350;51.280;12.400;2022-08-19T05:03:29;86.60;;;37.20;;
20381;SDS011;10350;51.280;12.400;2022-08-19T05:05:58;97.20;;;36.78;;
20381;SDS011;10350;51.280;12.400;2022-08-19T05:08:24;96.70;;;38.10;;
20381;SDS011;10350;51.280;12.400;2022-08-19T05:10:50;99.63;;;39.13;;
20381;SDS011;10350;51.280;12.400;2022-08-19T05:13:17;116.20;;;39.65;;
20381;SDS011;10350;51.280;12.400;2022-08-19T05:15:44;123.70;;;41.67;;
20381;SDS011;10350;51.280;12.400;2022-08-19T05:18:18;114.03;;;39.63;;
20381;SDS011;10350;51.280;12.400;2022-08-19T05:21:09;104.13;;;39.88;;
20381;SDS011;10350;51.280;12.400;2022-08-19T05:23:55;111.63;;;43.53;;
20381;SDS011;10350;51.280;12.400;2022-08-19T05:26:22;103.40;;;42.20;;
20381;SDS011;10350;51.280;12.400;2022-08-19T05:28:48;123.40;;;44.08;;
20381;SDS011;10350;51.280;12.400;2022-08-19T05:31:14;117.25;;;41.55;;
20381;SDS011;10350;51.280;12.400;2022-08-19T05:33:40;129.63;;;43.80;;
20381;SDS011;10350;51.280;12.400;2022-08-19T05:36:08;123.63;;;44.33;;
20381;SDS011;10350;51.280;12.400;2022-08-19T05:38:34;144.32;;;44.17;;
20381;SDS011;10350;51.280;12.400;2022-08-19T05:41:01;145.95;;;45.53;;
20381;SDS011;10350;51.280;12.400;2022-08-19T05:43:31;116.15;;;43.60;;
20381;SDS011;10350;51.280;12.400;2022-08-19T05:45:57;135.77;;;46.33;;
20381;SDS011;10350;51.280;12.400;2022-08-19T05:48:23;142.00;;;47.75;;
20381;SDS011;10350;51.280;12.400;2022-08-19T05:50:49;133.60;;;46.92;;
20381;SDS011;10350;51.280;12.400;2022-08-19T05:53:15;154.32;;;48.20;;
20381;SDS011;10350;51.280;12.400;2022-08-19T05:55:41;142.43;;;48.42;;
20381;SDS011;10350;51.280;12.400;2022-08-19T05:58:07;156.52;;;47.47;;
20381;SDS011;10350;51.280;12.400;2022-08-19T06:00:34;160.80;;;48.45;;
20381;SDS011;10350;51.280;12.400;2022-08-19T06:03:00;166.40;;;49.10;;
20381;SDS011;10350;51.280;12.400;2022-08-19T06:05:31;149.02;;;49.58;;
20381;SDS011;10350;51.280;12.400;2022-08-19T06:07:57;173.73;;;50.95;;
20381;SDS011;10350;51.280;12.400;2022-08-19T06:10:24;167.35;;;49.15;;
20381;SDS011;10350;51.280;12.400;2022-08-19T06:12:51;167.13;;;50.70;;
20381;SDS011;10350;51.280;12.400;2022-08-19T06:15:17;163.30;;;52.15;;
20381;SDS011;10350;51.280;12.400;2022-08-19T06:17:43;166.57;;;51.35;;
20381;SDS011;10350;51.280;12.400;2022-08-19T06:20:10;178.80;;;52.08;;
20381;SDS011;10350;51.280;12.400;2022-08-19T06:22:40;158.93;;;52.53;;
20381;SDS011;10350;51.280;12.400;2022-08-19T06:25:07;175.98;;;49.97;;
20381;SDS011;10350;51.280;12.400;2022-08-19T06:27:34;153.82;;;51.22;;
20381;SDS011;10350;51.280;12.400;2022-08-19T06:30:01;172.40;;;51.63;;
20381;SDS011;10350;51.280;12.400;2022-08-19T06:32:28;210.38;;;53.13;;
20381;SDS011;10350;51.280;12.400;2022-08-19T06:34:55;184.60;;;54.28;;
20381;SDS011;10350;51.280;12.400;2022-08-19T06:37:21;165.15;;;53.22;;
20381;SDS011;10350;51.280;12.400;2022-08-19T06:39:47;148.90;;;51.10;;
20381;SDS011;10350;51.280;12.400;2022-08-19T06:42:14;163.43;;;53.30;;
20381;SDS011;10350;51.280;12.400;2022-08-19T06:44:44;152.38;;;46.95;;
20381;SDS011;10350;51.280;12.400;2022-08-19T06:47:11;167.53;;;51.27;;
20381;SDS011;10350;51.280;12.400;2022-08-19T06:49:37;164.13;;;53.28;;
20381;SDS011;10350;51.280;12.400;2022-08-19T06:52:04;180.40;;;54.15;;
20381;SDS011;10350;51.280;12.400;2022-08-19T06:54:30;157.27;;;51.35;;
20381;SDS011;10350;51.280;12.400;2022-08-19T06:56:57;159.55;;;50.30;;
20381;SDS011;10350;51.280;12.400;2022-08-19T06:59:26;168.63;;;52.15;;
20381;SDS011;10350;51.280;12.400;2022-08-19T07:01:54;168.73;;;51.22;;
20381;SDS011;10350;51.280;12.400;2022-08-19T07:04:21;167.67;;;53.10;;
20381;SDS011;10350;51.280;12.400;2022-08-19T07:06:47;173.33;;;52.90;;
20381;SDS011;10350;51.280;12.400;2022-08-19T07:09:14;162.30;;;50.80;;
20381;SDS011;10350;51.280;12.400;2022-08-19T07:11:50;176.90;;;56.78;;
20381;SDS011;10350;51.280;12.400;2022-08-19T07:14:18;187.05;;;53.33;;
20381;SDS011;10350;51.280;12.400;2022-08-19T07:16:45;188.57;;;53.40;;
20381;SDS011;10350;51.280;12.400;2022-08-19T07:19:11;171.63;;;54.38;;
20381;SDS011;10350;51.280;12.400;2022-08-19T07:21:38;182.90;;;56.33;;
20381;SDS011;10350;51.280;12.400;2022-08-19T07:24:04;162.15;;;51.88;;
20381;SDS011;10350;51.280;12.400;2022-08-19T07:26:32;166.98;;;52.60;;
20381;SDS011;10350;51.280;12.400;2022-08-19T07:28:58;168.13;;;51.30;;
20381;SDS011;10350;51.280;12.400;2022-08-19T07:31:26;180.82;;;53.35;;
20381;SDS011;10350;51.280;12.400;2022-08-19T07:33:53;173.55;;;54.90;;
20381;SDS011;10350;51.280;12.400;2022-08-19T07:36:24;179.63;;;54.55;;
20381;SDS011;10350;51.280;12.400;2022-08-19T07:38:53;178.27;;;53.63;;
20381;SDS011;10350;51.280;12.400;2022-08-19T07:41:23;164.75;;;51.80;;
20381;SDS011;10350;51.280;12.400;2022-08-19T07:43:49;171.05;;;51.55;;
20381;SDS011;10350;51.280;12.400;2022-08-19T07:46:16;179.98;;;54.75;;
20381;SDS011;10350;51.280;12.400;2022-08-19T07:48:46;172.25;;;50.15;;
20381;SDS011;10350;51.280;12.400;2022-08-19T07:51:13;165.35;;;52.28;;
20381;SDS011;10350;51.280;12.400;2022-08-19T07:53:40;170.95;;;52.60;;
20381;SDS011;10350;51.280;12.400;2022-08-19T07:56:06;175.52;;;48.72;;
20381;SDS011;10350;51.280;12.400;2022-08-19T07:58:37;165.07;;;51.78;;
20381;SDS011;10350;51.280;12.400;2022-08-19T08:01:04;152.80;;;51.35;;
20381;SDS011;10350;51.280;12.400;2022-08-19T08:03:30;150.98;;;48.42;;
20381;SDS011;10350;51.280;12.400;2022-08-19T08:06:34;145.75;;;47.60;;
20381;SDS011;10350;51.280;12.400;2022-08-19T08:09:23;150.85;;;48.85;;
20381;SDS011;10350;51.280;12.400;2022-08-19T08:11:53;135.55;;;47.67;;
20381;SDS011;10350;51.280;12.400;2022-08-19T08:14:22;132.98;;;47.53;;
20381;SDS011;10350;51.280;12.400;2022-08-19T08:16:49;147.32;;;45.67;;
20381;SDS011;10350;51.280;12.400;2022-08-19T08:19:16;142.93;;;47.53;;
20381;SDS011;10350;51.280;12.400;2022-08-19T08:21:45;133.65;;;45.17;;
20381;SDS011;10350;51.280;12.400;2022-08-19T08:24:11;146.63;;;42.47;;
20381;SDS011;10350;51.280;12.400;2022-08-19T08:26:38;130.95;;;45.58;;
20381;SDS011;10350;51.280;12.400;2022-08-19T08:29:04;124.03;;;42.58;;
20381;SDS011;10350;51.280;12.400;2022-08-19T08:33:59;128.02;;;44.80;;
20381;SDS011;10350;51.280;12.400;2022-08-19T08:36:25;124.75;;;46.03;;
20381;SDS011;10350;51.280;12.400;2022-08-19T08:38:52;133.23;;;44.35;;
20381;SDS011;10350;51.280;12.400;2022-08-19T08:44:03;111.88;;;40.28;;
20381;SDS011;10350;51.280;12.400;2022-08-19T08:48:59;106.47;;;38.38;;
20381;SDS011;10350;51.280;12.400;2022-08-19T08:51:28;110.72;;;42.05;;
20381;SDS011;10350;51.280;12.400;2022-08-19T08:53:55;111.22;;;39.67;;
20381;SDS011;10350;51.280;12.400;2022-08-19T08:56:22;106.80;;;41.42;;
20381;SDS011;10350;51.280;12.400;2022-08-19T08:58:54;108.72;;;41.60;;
20381;SDS011;10350;51.280;12.400;2022-08-19T09:01:22;118.53;;;40.97;;
20381;SDS011;10350;51.280;12.400;2022-08-19T09:03:48;115.95;;;40.60;;
20381;SDS011;10350;51.280;12.400;2022-08-19T09:06:18;107.50;;;41.22;;
20381;SDS011;10350;51.280;12.400;2022-08-19T09:11:22;110.95;;;41.47;;
20381;SDS011;10350;51.280;12.400;2022-08-19T09:13:56;113.75;;;43.10;;
20381;SDS011;10350;51.280;12.400;2022-08-19T09:16:27;122.80;;;45.28;;
20381;SDS011;10350;51.280;12.400;2022-08-19T09:18:54;107.82;;;43.10;;
20381;SDS011;10350;51.280;12.400;2022-08-19T09:21:23;116.43;;;43.05;;
20381;SDS011;10350;51.280;12.400;2022-08-19T09:23:50;116.75;;;42.58;;
20381;SDS011;10350;51.280;12.400;2022-08-19T09:26:17;114.75;;;42.13;;
20381;SDS011;10350;51.280;12.400;2022-08-19T09:28:45;111.00;;;40.38;;
20381;SDS011;10350;51.280;12.400;2022-08-19T09:31:12;107.40;;;42.30;;
20381;SDS011;10350;51.280;12.400;2022-08-19T09:33:38;119.05;;;42.97;;
20381;SDS011;10350;51.280;12.400;2022-08-19T09:36:06;104.05;;;40.38;;
20381;SDS011;10350;51.280;12.400;2022-08-19T09:38:32;105.45;;;41.20;;
20381;SDS011;10350;51.280;12.400;2022-08-19T09:41:03;89.45;;;37.90;;
20381;SDS011;10350;51.280;12.400;2022-08-19T09:43:29;98.35;;;40.42;;
20381;SDS011;10350;51.280;12.400;2022-08-19T09:45:55;98.50;;;40.78;;
20381;SDS011;10350;51.280;12.400;2022-08-19T09:48:21;95.63;;;39.50;;
20381;SDS011;10350;51.280;12.400;2022-08-19T09:50:47;102.32;;;38.92;;
20381;SDS011;10350;51.280;12.400;2022-08-19T09:53:16;96.95;;;38.75;;
20381;SDS011;10350;51.280;12.400;2022-08-19T09:55:42;96.30;;;38.78;;
20381;SDS011;10350;51.280;12.400;2022-08-19T09:58:08;100.43;;;39.40;;
20381;SDS011;10350;51.280;12.400;2022-08-19T10:00:36;93.25;;;38.55;;
20381;SDS011;10350;51.280;12.400;2022-08-19T10:03:03;93.05;;;37.45;;
20381;SDS011;10350;51.280;12.400;2022-08-19T10:05:29;90.72;;;36.33;;
20381;SDS011;10350;51.280;12.400;2022-08-19T10:08:13;81.10;;;35.53;;
20381;SDS011;10350;51.280;12.400;2022-08-19T10:10:50;78.72;;;33.90;;
20381;SDS011;10350;51.280;12.400;2022-08-19T10:13:18;87.72;;;35.40;;
20381;SDS011;10350;51.280;12.400;2022-08-19T10:15:47;75.30;;;35.15;;
20381;SDS011;10350;51.280;12.400;2022-08-19T10:20:42;77.60;;;33.78;;
20381;SDS011;10350;51.280;12.400;2022-08-19T10:23:10;74.75;;;34.65;;
20381;SDS011;10350;51.280;12.400;2022-08-19T10:25:36;77.13;;;33.35;;
20381;SDS011;10350;51.280;12.400;2022-08-19T10:28:02;72.53;;;32.60;;
20381;SDS011;10350;51.280;12.400;2022-08-19T10:30:29;71.28;;;30.45;;
20381;SDS011;10350;51.280;12.400;2022-08-19T10:32:55;58.95;;;29.15;;
20381;SDS011;10350;51.280;12.400;2022-08-19T10:35:21;63.17;;;29.08;;
20381;SDS011;10350;51.280;12.400;2022-08-19T10:37:47;44.60;;;25.05;;
20381;SDS011;10350;51.280;12.400;2022-08-19T10:40:12;39.15;;;23.45;;
20381;SDS011;10350;51.280;12.400;2022-08-19T10:42:38;39.80;;;23.52;;
20381;SDS011;10350;51.280;12.400;2022-08-19T10:45:05;41.42;;;21.98;;
20381;SDS011;10350;51.280;12.400;2022-08-19T10:47:32;43.22;;;24.45;;
20381;SDS011;10350;51.280;12.400;2022-08-19T10:49:58;37.88;;;22.77;;
20381;SDS011;10350;51.280;12.400;2022-08-19T10:52:43;37.47;;;19.90;;
20381;SDS011;10350;51.280;12.400;2022-08-19T10:55:09;38.70;;;20.63;;
20381;SDS011;10350;51.280;12.400;2022-08-19T10:57:54;34.25;;;19.58;;
20381;SDS011;10350;51.280;12.400;2022-08-19T11:00:20;29.88;;;20.10;;
20381;SDS011;10350;51.280;12.400;2022-08-19T11:02:51;31.97;;;17.93;;
20381;SDS011;10350;51.280;12.400;2022-08-19T11:05:17;26.98;;;17.02;;
20381;SDS011;10350;51.280;12.400;2022-08-19T11:07:43;28.98;;;17.67;;
20381;SDS011;10350;51.280;12.400;2022-08-19T11:10:11;24.70;;;15.93;;
20381;SDS011;10350;51.280;12.400;2022-08-19T11:12:43;29.85;;;17.45;;
20381;SDS011;10350;51.280;12.400;2022-08-19T11:15:11;26.52;;;15.02;;
20381;SDS011;10350;51.280;12.400;2022-08-19T11:17:38;24.77;;;15.27;;
20381;SDS011;10350;51.280;12.400;2022-08-19T11:20:06;24.50;;;16.13;;
20381;SDS011;10350;51.280;12.400;2022-08-19T11:22:33;23.17;;;14.80;;
20381;SDS011;10350;51.280;12.400;2022-08-19T11:24:59;24.95;;;13.77;;
20381;SDS011;10350;51.280;12.400;2022-08-19T11:27:25;21.00;;;13.75;;
20381;SDS011;10350;51.280;12.400;2022-08-19T11:29:52;25.65;;;13.80;;
20381;SDS011;10350;51.280;12.400;2022-08-19T11:32:18;17.73;;;12.10;;
20381;SDS011;10350;51.280;12.400;2022-08-19T11:34:44;25.48;;;13.30;;
20381;SDS011;10350;51.280;12.400;2022-08-19T11:37:10;22.92;;;12.63;;
20381;SDS011;10350;51.280;12.400;2022-08-19T11:39:36;23.63;;;12.25;;
20381;SDS011;10350;51.280;12.400;2022-08-19T11:42:03;18.30;;;11.43;;
20381;SDS011;10350;51.280;12.400;2022-08-19T11:44:49;23.93;;;13.00;;
20381;SDS011;10350;51.280;12.400;2022-08-19T11:47:15;18.70;;;12.52;;
20381;SDS011;10350;51.280;12.400;2022-08-19T11:49:41;19.20;;;12.75;;
20381;SDS011;10350;51.280;12.400;2022-08-19T11:52:07;20.35;;;12.35;;
20381;SDS011;10350;51.280;12.400;2022-08-19T11:54:34;23.15;;;13.30;;
20381;SDS011;10350;51.280;12.400;2022-08-19T11:57:01;20.33;;;12.93;;
20381;SDS011;10350;51.280;12.400;2022-08-19T11:59:27;21.00;;;12.57;;
20381;SDS011;10350;51.280;12.400;2022-08-19T12:01:54;20.08;;;11.48;;
20381;SDS011;10350;51.280;12.400;2022-08-19T12:04:20;23.70;;;11.57;;
20381;SDS011;10350;51.280;12.400;2022-08-19T12:06:46;22.55;;;11.02;;
20381;SDS011;10350;51.280;12.400;2022-08-19T12:09:13;16.90;;;11.32;;
20381;SDS011;10350;51.280;12.400;2022-08-19T12:11:40;16.95;;;11.23;;
20381;SDS011;10350;51.280;12.400;2022-08-19T12:14:10;16.38;;;11.15;;
20381;SDS011;10350;51.280;12.400;2022-08-19T12:16:36;20.15;;;11.13;;
20381;SDS011;10350;51.280;12.400;2022-08-19T12:19:03;15.65;;;10.32;;
20381;SDS011;10350;51.280;12.400;2022-08-19T12:21:30;20.33;;;10.13;;
20381;SDS011;10350;51.280;12.400;2022-08-19T12:23:57;18.85;;;11.43;;
20381;SDS011;10350;51.280;12.400;2022-08-19T12:26:24;16.63;;;10.50;;
20381;SDS011;10350;51.280;12.400;2022-08-19T12:28:50;16.30;;;9.93;;
20381;SDS011;10350;51.280;12.400;2022-08-19T12:31:16;16.35;;;10.20;;
20381;SDS011;10350;51.280;12.400;2022-08-19T12:33:44;16.38;;;10.30;;
20381;SDS011;10350;51.280;12.400;2022-08-19T12:36:11;18.80;;;10.45;;
20381;SDS011;10350;51.280;12.400;2022-08-19T12:38:37;19.35;;;9.68;;
20381;SDS011;10350;51.280;12.400;2022-08-19T12:41:04;14.25;;;8.77;;
20381;SDS011;10350;51.280;12.400;2022-08-19T12:43:35;13.63;;;9.10;;
20381;SDS011;10350;51.280;12.400;2022-08-19T12:46:02;17.08;;;8.65;;
20381;SDS011;10350;51.280;12.400;2022-08-19T12:48:29;13.05;;;7.95;;
20381;SDS011;10350;51.280;12.400;2022-08-19T12:50:55;13.55;;;8.57;;
20381;SDS011;10350;51.280;12.400;2022-08-19T12:53:21;14.13;;;8.45;;
20381;SDS011;10350;51.280;12.400;2022-08-19T12:55:47;13.25;;;8.82;;
20381;SDS011;10350;51.280;12.400;2022-08-19T12:58:13;14.13;;;7.97;;
20381;SDS011;10350;51.280;12.400;2022-08-19T13:00:39;12.27;;;7.47;;
20381;SDS011;10350;51.280;12.400;2022-08-19T13:03:08;10.90;;;7.45;;
20381;SDS011;10350;51.280;12.400;2022-08-19T13:05:34;11.02;;;8.07;;
20381;SDS011;10350;51.280;12.400;2022-08-19T13:08:00;15.02;;;8.82;;
20381;SDS011;10350;51.280;12.400;2022-08-19T13:10:30;15.27;;;8.02;;
20381;SDS011;10350;51.280;12.400;2022-08-19T13:12:59;11.85;;;8.00;;
20381;SDS011;10350;51.280;12.400;2022-08-19T13:15:26;11.20;;;7.57;;
20381;SDS011;10350;51.280;12.400;2022-08-19T13:17:53;12.20;;;8.90;;
20381;SDS011;10350;51.280;12.400;2022-08-19T13:20:21;15.23;;;9.63;;
20381;SDS011;10350;51.280;12.400;2022-08-19T13:22:47;12.88;;;8.65;;
20381;SDS011;10350;51.280;12.400;2022-08-19T13:25:22;15.18;;;9.60;;
20381;SDS011;10350;51.280;12.400;2022-08-19T13:27:48;16.65;;;9.23;;
20381;SDS011;10350;51.280;12.400;2022-08-19T13:30:16;10.70;;;7.28;;
20381;SDS011;10350;51.280;12.400;2022-08-19T13:33:01;17.70;;;9.85;;
20381;SDS011;10350;51.280;12.400;2022-08-19T13:35:36;17.15;;;10.80;;
20381;SDS011;10350;51.280;12.400;2022-08-19T13:38:02;14.75;;;9.48;;
20381;SDS011;10350;51.280;12.400;2022-08-19T13:40:30;14.30;;;10.23;;
20381;SDS011;10350;51.280;12.400;2022-08-19T13:42:58;12.93;;;9.57;;
20381;SDS011;10350;51.280;12.400;2022-08-19T13:45:24;14.60;;;9.27;;
20381;SDS011;10350;51.280;12.400;2022-08-19T13:47:53;12.27;;;8.98;;
20381;SDS011;10350;51.280;12.400;2022-08-19T13:50:21;12.75;;;7.95;;
20381;SDS011;10350;51.280;12.400;2022-08-19T13:52:49;17.33;;;10.88;;
20381;SDS011;10350;51.280;12.400;2022-08-19T13:55:15;15.40;;;10.05;;
20381;SDS011;10350;51.280;12.400;2022-08-19T13:57:41;12.27;;;9.45;;
20381;SDS011;10350;51.280;12.400;2022-08-19T14:00:08;14.00;;;10.32;;
20381;SDS011;10350;51.280;12.400;2022-08-19T14:02:35;17.65;;;10.45;;
20381;SDS011;10350;51.280;12.400;2022-08-19T14:05:03;15.97;;;9.77;;
20381;SDS011;10350;51.280;12.400;2022-08-19T14:07:29;17.70;;;9.15;;
20381;SDS011;10350;51.280;12.400;2022-08-19T14:09:55;16.48;;;10.38;;
20381;SDS011;10350;51.280;12.400;2022-08-19T14:12:21;13.52;;;9.88;;
20381;SDS011;10350;51.280;12.400;2022-08-19T14:14:47;11.48;;;9.48;;
20381;SDS011;10350;51.280;12.400;2022-08-19T14:17:13;13.05;;;9.27;;
20381;SDS011;10350;51.280;12.400;2022-08-19T14:19:40;13.27;;;9.30;;